sensor_id;sensor_type;location;lat;lon;timestamp;P1;durP1;ratioP1;P2;durP2;ratioP2
31728;SDS011;18309;43.658;1.312;2022-09-12T00:00:50;3.60;;;0.95;;
31728;SDS011;18309;43.658;1.312;2022-09-12T00:03:16;3.35;;;0.82;;
31728;SDS011;18309;43.658;1.312;2022-09-12T00:05:42;3.47;;;0.90;;
31728;SDS011;18309;43.658;1.312;2022-09-12T00:08:09;3.53;;;0.95;;
31728;SDS011;18309;43.658;1.312;2022-09-12T00:10:36;5.50;;;1.00;;
31728;SDS011;18309;43.658;1.312;2022-09-12T00:13:03;5.20;;;1.05;;
31728;SDS011;18309;43.658;1.312;2022-09-12T00:15:29;5.95;;;0.90;;
31728;SDS011;18309;43.658;1.312;2022-09-12T00:17:55;8.38;;;1.00;;
31728;SDS011;18309;43.658;1.312;2022-09-12T00:20:20;2.58;;;0.60;;
31728;SDS011;18309;43.658;1.312;2022-09-12T00:22:46;11.82;;;1.15;;
31728;SDS011;18309;43.658;1.312;2022-09-12T00:25:12;8.23;;;1.00;;
31728;SDS011;18309;43.658;1.312;2022-09-12T00:27:37;4.07;;;0.68;;
31728;SDS011;18309;43.658;1.312;2022-09-12T00:30:03;8.55;;;0.82;;
31728;SDS011;18309;43.658;1.312;2022-09-12T00:32:30;3.38;;;0.88;;
31728;SDS011;18309;43.658;1.312;2022-09-12T00:34:55;4.95;;;0.77;;
31728;SDS011;18309;43.658;1.312;2022-09-12T00:37:21;3.80;;;1.00;;
31728;SDS011;18309;43.658;1.312;2022-09-12T00:39:46;5.20;;;0.98;;
31728;SDS011;18309;43.658;1.312;2022-09-12T00:42:12;7.82;;;0.95;;
31728;SDS011;18309;43.658;1.312;2022-09-12T00:44:42;3.15;;;0.70;;
31728;SDS011;18309;43.658;1.312;2022-09-12T00:47:18;3.45;;;0.77;;
31728;SDS011;18309;43.658;1.312;2022-09-12T00:49:51;5.50;;;0.95;;
31728;SDS011;18309;43.658;1.312;2022-09-12T00:52:57;8.48;;;1.00;;
31728;SDS011;18309;43.658;1.312;2022-09-12T00:55:33;4.95;;;1.52;;
31728;SDS011;18309;43.658;1.312;2022-09-12T00:58:09;5.40;;;0.75;;
31728;SDS011;18309;43.658;1.312;2022-09-12T01:00:40;8.30;;;1.20;;
31728;SDS011;18309;43.658;1.312;2022-09-12T01:03:10;7.10;;;0.95;;
31728;SDS011;18309;43.658;1.312;2022-09-12T01:05:40;8.98;;;1.13;;
31728;SDS011;18309;43.658;1.312;2022-09-12T01:10:35;7.43;;;0.90;;
31728;SDS011;18309;43.658;1.312;2022-09-12T01:13:03;4.00;;;0.85;;
31728;SDS011;18309;43.658;1.312;2022-09-12T01:15:30;4.82;;;1.10;;
31728;SDS011;18309;43.658;1.312;2022-09-12T01:18:20;3.58;;;0.70;;
31728;SDS011;18309;43.658;1.312;2022-09-12T01:21:22;9.10;;;1.25;;
31728;SDS011;18309;43.658;1.312;2022-09-12T01:24:20;3.53;;;0.80;;
31728;SDS011;18309;43.658;1.312;2022-09-12T01:30:37;4.50;;;1.23;;
31728;SDS011;18309;43.658;1.312;2022-09-12T01:38:42;6.15;;;1.23;;
31728;SDS011;18309;43.658;1.312;2022-09-12T01:43:51;5.63;;;1.13;;
31728;SDS011;18309;43.658;1.312;2022-09-12T01:46:34;6.03;;;0.80;;
31728;SDS011;18309;43.658;1.312;2022-09-12T01:51:43;5.43;;;1.20;;
31728;SDS011;18309;43.658;1.312;2022-09-12T01:54:49;8.20;;;1.00;;
31728;SDS011;18309;43.658;1.312;2022-09-12T01:57:24;4.00;;;0.93;;
31728;SDS011;18309;43.658;1.312;2022-09-12T01:59:59;4.07;;;0.93;;
31728;SDS011;18309;43.658;1.312;2022-09-12T02:02:32;6.70;;;1.25;;
31728;SDS011;18309;43.658;1.312;2022-09-12T02:05:39;5.22;;;0.88;;
31728;SDS011;18309;43.658;1.312;2022-09-12T02:08:05;4.47;;;0.90;;
31728;SDS011;18309;43.658;1.312;2022-09-12T02:10:54;6.45;;;1.50;;
31728;SDS011;18309;43.658;1.312;2022-09-12T02:13:28;7.00;;;1.60;;
31728;SDS011;18309;43.658;1.312;2022-09-12T02:17:04;5.93;;;1.02;;
31728;SDS011;18309;43.658;1.312;2022-09-12T02:19:18;6.68;;;0.88;;
31728;SDS011;18309;43.658;1.312;2022-09-12T02:26:46;6.22;;;0.70;;
31728;SDS011;18309;43.658;1.312;2022-09-12T02:29:20;5.90;;;1.08;;
31728;SDS011;18309;43.658;1.312;2022-09-12T02:31:47;4.47;;;0.88;;
31728;SDS011;18309;43.658;1.312;2022-09-12T02:39:44;6.85;;;1.63;;
31728;SDS011;18309;43.658;1.312;2022-09-12T02:42:11;4.63;;;1.00;;
31728;SDS011;18309;43.658;1.312;2022-09-12T02:44:37;5.72;;;0.93;;
31728;SDS011;18309;43.658;1.312;2022-09-12T02:49:32;4.95;;;0.95;;
31728;SDS011;18309;43.658;1.312;2022-09-12T02:51:58;3.83;;;0.98;;
31728;SDS011;18309;43.658;1.312;2022-09-12T02:54:25;8.10;;;1.00;;
31728;SDS011;18309;43.658;1.312;2022-09-12T02:56:51;5.90;;;1.52;;
31728;SDS011;18309;43.658;1.312;2022-09-12T02:59:17;8.45;;;1.13;;
31728;SDS011;18309;43.658;1.312;2022-09-12T03:10:09;6.68;;;1.00;;
31728;SDS011;18309;43.658;1.312;2022-09-12T03:24:50;6.00;;;0.80;;
31728;SDS011;18309;43.658;1.312;2022-09-12T03:27:30;4.80;;;0.90;;
31728;SDS011;18309;43.658;1.312;2022-09-12T03:30:01;4.70;;;0.90;;
31728;SDS011;18309;43.658;1.312;2022-09-12T03:35:12;6.93;;;0.93;;
31728;SDS011;18309;43.658;1.312;2022-09-12T03:37:39;7.43;;;1.05;;
31728;SDS011;18309;43.658;1.312;2022-09-12T03:40:05;3.95;;;0.85;;
31728;SDS011;18309;43.658;1.312;2022-09-12T03:42:32;4.00;;;1.13;;
31728;SDS011;18309;43.658;1.312;2022-09-12T03:44:58;5.45;;;1.08;;
31728;SDS011;18309;43.658;1.312;2022-09-12T03:47:23;7.80;;;0.95;;
31728;SDS011;18309;43.658;1.312;2022-09-12T03:49:49;2.83;;;0.82;;
31728;SDS011;18309;43.658;1.312;2022-09-12T03:52:17;4.25;;;0.90;;
31728;SDS011;18309;43.658;1.312;2022-09-12T03:54:43;7.03;;;1.27;;
31728;SDS011;18309;43.658;1.312;2022-09-12T03:57:09;8.38;;;1.42;;
31728;SDS011;18309;43.658;1.312;2022-09-12T03:59:35;5.47;;;0.85;;
31728;SDS011;18309;43.658;1.312;2022-09-12T04:02:00;3.42;;;0.93;;
31728;SDS011;18309;43.658;1.312;2022-09-12T04:04:26;5.93;;;1.00;;
31728;SDS011;18309;43.658;1.312;2022-09-12T04:06:52;7.53;;;0.85;;
31728;SDS011;18309;43.658;1.312;2022-09-12T04:09:18;6.57;;;1.30;;
31728;SDS011;18309;43.658;1.312;2022-09-12T04:11:43;6.40;;;1.20;;
31728;SDS011;18309;43.658;1.312;2022-09-12T04:14:09;6.32;;;1.67;;
31728;SDS011;18309;43.658;1.312;2022-09-12T04:16:35;5.03;;;1.10;;
31728;SDS011;18309;43.658;1.312;2022-09-12T04:19:00;6.13;;;1.23;;
31728;SDS011;18309;43.658;1.312;2022-09-12T04:21:26;5.35;;;1.02;;
31728;SDS011;18309;43.658;1.312;2022-09-12T04:23:52;5.55;;;1.10;;
31728;SDS011;18309;43.658;1.312;2022-09-12T04:26:18;4.68;;;0.90;;
31728;SDS011;18309;43.658;1.312;2022-09-12T04:28:44;2.88;;;1.17;;
31728;SDS011;18309;43.658;1.312;2022-09-12T04:31:15;5.38;;;1.25;;
31728;SDS011;18309;43.658;1.312;2022-09-12T04:33:42;8.23;;;1.10;;
31728;SDS011;18309;43.658;1.312;2022-09-12T04:36:13;3.47;;;1.10;;
31728;SDS011;18309;43.658;1.312;2022-09-12T04:38:40;4.30;;;1.20;;
31728;SDS011;18309;43.658;1.312;2022-09-12T04:43:41;6.85;;;1.33;;
31728;SDS011;18309;43.658;1.312;2022-09-12T04:46:08;3.47;;;1.08;;
31728;SDS011;18309;43.658;1.312;2022-09-12T04:48:37;3.65;;;1.17;;
31728;SDS011;18309;43.658;1.312;2022-09-12T04:51:10;4.88;;;1.10;;
31728;SDS011;18309;43.658;1.312;2022-09-12T04:53:38;2.97;;;1.33;;
31728;SDS011;18309;43.658;1.312;2022-09-12T04:56:05;4.50;;;1.50;;
31728;SDS011;18309;43.658;1.312;2022-09-12T04:58:33;2.80;;;1.05;;
31728;SDS011;18309;43.658;1.312;2022-09-12T05:01:06;7.93;;;1.58;;
31728;SDS011;18309;43.658;1.312;2022-09-12T05:03:34;2.55;;;1.10;;
31728;SDS011;18309;43.658;1.312;2022-09-12T05:06:03;5.55;;;1.05;;
31728;SDS011;18309;43.658;1.312;2022-09-12T05:08:30;7.63;;;1.88;;
31728;SDS011;18309;43.658;1.312;2022-09-12T05:10:59;7.90;;;1.67;;
31728;SDS011;18309;43.658;1.312;2022-09-12T05:13:28;6.30;;;1.58;;
31728;SDS011;18309;43.658;1.312;2022-09-12T05:15:55;7.13;;;1.60;;
31728;SDS011;18309;43.658;1.312;2022-09-12T05:18:22;5.22;;;1.60;;
31728;SDS011;18309;43.658;1.312;2022-09-12T05:20:47;4.13;;;1.50;;
31728;SDS011;18309;43.658;1.312;2022-09-12T05:23:14;4.72;;;1.63;;
31728;SDS011;18309;43.658;1.312;2022-09-12T05:25:46;8.40;;;1.67;;
31728;SDS011;18309;43.658;1.312;2022-09-12T05:28:13;5.07;;;1.45;;
31728;SDS011;18309;43.658;1.312;2022-09-12T05:30:39;8.55;;;1.75;;
31728;SDS011;18309;43.658;1.312;2022-09-12T05:33:04;6.25;;;1.80;;
31728;SDS011;18309;43.658;1.312;2022-09-12T05:35:30;8.13;;;1.83;;
31728;SDS011;18309;43.658;1.312;2022-09-12T05:37:57;7.45;;;2.08;;
31728;SDS011;18309;43.658;1.312;2022-09-12T05:40:22;5.38;;;2.15;;
31728;SDS011;18309;43.658;1.312;2022-09-12T05:42:48;11.45;;;2.45;;
31728;SDS011;18309;43.658;1.312;2022-09-12T05:45:14;8.10;;;2.10;;
31728;SDS011;18309;43.658;1.312;2022-09-12T05:47:40;9.80;;;2.10;;
31728;SDS011;18309;43.658;1.312;2022-09-12T05:50:07;9.23;;;2.13;;
31728;SDS011;18309;43.658;1.312;2022-09-12T05:52:35;11.18;;;2.45;;
31728;SDS011;18309;43.658;1.312;2022-09-12T05:55:01;5.50;;;1.48;;
31728;SDS011;18309;43.658;1.312;2022-09-12T05:57:27;6.32;;;1.70;;
31728;SDS011;18309;43.658;1.312;2022-09-12T05:59:53;7.40;;;2.08;;
31728;SDS011;18309;43.658;1.312;2022-09-12T06:02:19;4.80;;;1.60;;
31728;SDS011;18309;43.658;1.312;2022-09-12T06:04:45;5.53;;;1.70;;
31728;SDS011;18309;43.658;1.312;2022-09-12T06:07:10;3.88;;;1.65;;
31728;SDS011;18309;43.658;1.312;2022-09-12T06:09:36;15.30;;;2.20;;
31728;SDS011;18309;43.658;1.312;2022-09-12T06:12:02;5.55;;;2.05;;
31728;SDS011;18309;43.658;1.312;2022-09-12T06:14:28;4.38;;;1.85;;
31728;SDS011;18309;43.658;1.312;2022-09-12T06:16:54;4.13;;;1.70;;
31728;SDS011;18309;43.658;1.312;2022-09-12T06:19:20;2.75;;;1.65;;
31728;SDS011;18309;43.658;1.312;2022-09-12T06:21:48;3.78;;;1.60;;
31728;SDS011;18309;43.658;1.312;2022-09-12T06:24:14;3.78;;;1.52;;
31728;SDS011;18309;43.658;1.312;2022-09-12T06:26:41;2.95;;;1.40;;
31728;SDS011;18309;43.658;1.312;2022-09-12T06:29:08;3.20;;;1.65;;
31728;SDS011;18309;43.658;1.312;2022-09-12T06:31:36;9.02;;;2.00;;
31728;SDS011;18309;43.658;1.312;2022-09-12T06:34:03;4.50;;;1.35;;
31728;SDS011;18309;43.658;1.312;2022-09-12T06:36:31;4.95;;;1.33;;
31728;SDS011;18309;43.658;1.312;2022-09-12T06:39:02;3.53;;;1.60;;
31728;SDS011;18309;43.658;1.312;2022-09-12T06:41:31;4.47;;;1.77;;
31728;SDS011;18309;43.658;1.312;2022-09-12T06:43:58;5.70;;;1.60;;
31728;SDS011;18309;43.658;1.312;2022-09-12T06:46:24;13.15;;;1.60;;
31728;SDS011;18309;43.658;1.312;2022-09-12T06:48:51;6.80;;;1.20;;
31728;SDS011;18309;43.658;1.312;2022-09-12T06:51:18;4.28;;;1.58;;
31728;SDS011;18309;43.658;1.312;2022-09-12T06:53:44;12.55;;;1.50;;
31728;SDS011;18309;43.658;1.312;2022-09-12T06:56:15;5.55;;;1.58;;
31728;SDS011;18309;43.658;1.312;2022-09-12T06:58:45;7.45;;;1.67;;
31728;SDS011;18309;43.658;1.312;2022-09-12T07:01:13;6.10;;;1.42;;
31728;SDS011;18309;43.658;1.312;2022-09-12T07:03:50;2.20;;;1.08;;
31728;SDS011;18309;43.658;1.312;2022-09-12T07:06:18;8.07;;;1.35;;
31728;SDS011;18309;43.658;1.312;2022-09-12T07:08:46;8.23;;;1.50;;
31728;SDS011;18309;43.658;1.312;2022-09-12T07:11:13;2.50;;;1.15;;
31728;SDS011;18309;43.658;1.312;2022-09-12T07:13:39;8.95;;;1.33;;
31728;SDS011;18309;43.658;1.312;2022-09-12T07:16:06;3.85;;;1.50;;
31728;SDS011;18309;43.658;1.312;2022-09-12T07:18:32;4.32;;;1.13;;
31728;SDS011;18309;43.658;1.312;2022-09-12T07:21:06;5.20;;;1.25;;
31728;SDS011;18309;43.658;1.312;2022-09-12T07:23:34;5.07;;;1.07;;
31728;SDS011;18309;43.658;1.312;2022-09-12T07:26:00;6.05;;;1.27;;
31728;SDS011;18309;43.658;1.312;2022-09-12T07:28:27;7.45;;;1.27;;
31728;SDS011;18309;43.658;1.312;2022-09-12T07:30:55;5.00;;;1.10;;
31728;SDS011;18309;43.658;1.312;2022-09-12T07:33:27;4.25;;;1.50;;
31728;SDS011;18309;43.658;1.312;2022-09-12T07:35:53;5.57;;;1.42;;
31728;SDS011;18309;43.658;1.312;2022-09-12T07:38:19;10.88;;;1.65;;
31728;SDS011;18309;43.658;1.312;2022-09-12T07:40:45;4.22;;;1.40;;
31728;SDS011;18309;43.658;1.312;2022-09-12T07:43:11;6.93;;;1.15;;
31728;SDS011;18309;43.658;1.312;2022-09-12T07:45:36;4.93;;;1.67;;
31728;SDS011;18309;43.658;1.312;2022-09-12T07:48:05;7.40;;;1.75;;
31728;SDS011;18309;43.658;1.312;2022-09-12T07:50:31;7.32;;;1.30;;
31728;SDS011;18309;43.658;1.312;2022-09-12T07:52:57;6.57;;;1.10;;
31728;SDS011;18309;43.658;1.312;2022-09-12T07:55:23;5.05;;;1.35;;
31728;SDS011;18309;43.658;1.312;2022-09-12T07:57:50;6.43;;;1.30;;
31728;SDS011;18309;43.658;1.312;2022-09-12T08:00:16;8.75;;;1.58;;
31728;SDS011;18309;43.658;1.312;2022-09-12T08:02:42;3.58;;;1.10;;
31728;SDS011;18309;43.658;1.312;2022-09-12T08:05:08;7.00;;;1.63;;
31728;SDS011;18309;43.658;1.312;2022-09-12T08:07:34;4.75;;;1.23;;
31728;SDS011;18309;43.658;1.312;2022-09-12T08:10:00;5.80;;;1.38;;
31728;SDS011;18309;43.658;1.312;2022-09-12T08:12:26;16.90;;;1.40;;
31728;SDS011;18309;43.658;1.312;2022-09-12T08:14:53;5.75;;;1.70;;
31728;SDS011;18309;43.658;1.312;2022-09-12T08:17:19;4.53;;;1.42;;
31728;SDS011;18309;43.658;1.312;2022-09-12T08:19:44;10.02;;;1.90;;
31728;SDS011;18309;43.658;1.312;2022-09-12T08:22:10;9.13;;;1.40;;
31728;SDS011;18309;43.658;1.312;2022-09-12T08:24:37;6.35;;;1.42;;
31728;SDS011;18309;43.658;1.312;2022-09-12T08:27:06;3.85;;;1.23;;
31728;SDS011;18309;43.658;1.312;2022-09-12T08:29:32;5.35;;;1.65;;
31728;SDS011;18309;43.658;1.312;2022-09-12T08:31:57;5.28;;;1.77;;
31728;SDS011;18309;43.658;1.312;2022-09-12T08:34:23;7.15;;;1.75;;
31728;SDS011;18309;43.658;1.312;2022-09-12T08:36:50;5.07;;;1.92;;
31728;SDS011;18309;43.658;1.312;2022-09-12T08:39:18;5.75;;;1.67;;
31728;SDS011;18309;43.658;1.312;2022-09-12T08:41:45;10.23;;;1.67;;
31728;SDS011;18309;43.658;1.312;2022-09-12T08:49:38;13.82;;;2.28;;
31728;SDS011;18309;43.658;1.312;2022-09-12T08:52:21;13.07;;;2.47;;
31728;SDS011;18309;43.658;1.312;2022-09-12T08:54:51;9.43;;;1.90;;
31728;SDS011;18309;43.658;1.312;2022-09-12T08:57:20;9.27;;;1.80;;
31728;SDS011;18309;43.658;1.312;2022-09-12T08:59:48;4.55;;;1.60;;
31728;SDS011;18309;43.658;1.312;2022-09-12T09:04:49;8.48;;;1.63;;
31728;SDS011;18309;43.658;1.312;2022-09-12T09:12:49;9.45;;;1.80;;
31728;SDS011;18309;43.658;1.312;2022-09-12T09:23:54;20.13;;;1.60;;
31728;SDS011;18309;43.658;1.312;2022-09-12T09:29:19;8.75;;;1.35;;
31728;SDS011;18309;43.658;1.312;2022-09-12T09:31:55;9.68;;;2.38;;
31728;SDS011;18309;43.658;1.312;2022-09-12T09:34:27;6.68;;;1.02;;
31728;SDS011;18309;43.658;1.312;2022-09-12T09:45:16;9.30;;;1.85;;
31728;SDS011;18309;43.658;1.312;2022-09-12T09:47:47;10.27;;;1.27;;
31728;SDS011;18309;43.658;1.312;2022-09-12T09:50:23;4.75;;;1.20;;
31728;SDS011;18309;43.658;1.312;2022-09-12T09:52:49;9.30;;;1.60;;
31728;SDS011;18309;43.658;1.312;2022-09-12T09:55:20;4.63;;;1.52;;
31728;SDS011;18309;43.658;1.312;2022-09-12T09:57:50;12.93;;;1.50;;
31728;SDS011;18309;43.658;1.312;2022-09-12T10:05:29;6.43;;;1.40;;
31728;SDS011;18309;43.658;1.312;2022-09-12T10:07:58;11.30;;;1.40;;
31728;SDS011;18309;43.658;1.312;2022-09-12T10:10:24;5.07;;;1.40;;
31728;SDS011;18309;43.658;1.312;2022-09-12T10:12:50;6.90;;;1.10;;
31728;SDS011;18309;43.658;1.312;2022-09-12T10:17:56;8.00;;;1.23;;
31728;SDS011;18309;43.658;1.312;2022-09-12T10:20:31;11.05;;;1.35;;
31728;SDS011;18309;43.658;1.312;2022-09-12T10:25:58;6.55;;;1.60;;
31728;SDS011;18309;43.658;1.312;2022-09-12T10:29:09;8.00;;;1.52;;
31728;SDS011;18309;43.658;1.312;2022-09-12T10:32:18;9.45;;;1.60;;
31728;SDS011;18309;43.658;1.312;2022-09-12T10:34:58;4.00;;;1.20;;
31728;SDS011;18309;43.658;1.312;2022-09-12T10:37:30;4.65;;;1.27;;
31728;SDS011;18309;43.658;1.312;2022-09-12T10:39:57;4.18;;;1.23;;
31728;SDS011;18309;43.658;1.312;2022-09-12T10:45:33;7.90;;;1.83;;
31728;SDS011;18309;43.658;1.312;2022-09-12T10:48:01;7.90;;;1.35;;
31728;SDS011;18309;43.658;1.312;2022-09-12T10:50:46;8.18;;;1.30;;
31728;SDS011;18309;43.658;1.312;2022-09-12T11:15:50;10.02;;;2.03;;
31728;SDS011;18309;43.658;1.312;2022-09-12T11:21:08;5.72;;;1.80;;
31728;SDS011;18309;43.658;1.312;2022-09-12T11:39:52;13.75;;;2.05;;
31728;SDS011;18309;43.658;1.312;2022-09-12T11:42:22;11.15;;;1.65;;
31728;SDS011;18309;43.658;1.312;2022-09-12T11:45:08;8.50;;;1.42;;
31728;SDS011;18309;43.658;1.312;2022-09-12T11:47:40;10.43;;;2.05;;
31728;SDS011;18309;43.658;1.312;2022-09-12T11:50:19;13.45;;;1.67;;
31728;SDS011;18309;43.658;1.312;2022-09-12T11:52:50;9.07;;;1.98;;
31728;SDS011;18309;43.658;1.312;2022-09-12T11:55:21;12.30;;;1.67;;
31728;SDS011;18309;43.658;1.312;2022-09-12T11:57:53;6.57;;;1.88;;
31728;SDS011;18309;43.658;1.312;2022-09-12T12:00:26;5.82;;;1.40;;
31728;SDS011;18309;43.658;1.312;2022-09-12T12:03:02;5.63;;;1.70;;
31728;SDS011;18309;43.658;1.312;2022-09-12T12:08:22;8.27;;;1.35;;
31728;SDS011;18309;43.658;1.312;2022-09-12T12:11:08;12.45;;;1.55;;
31728;SDS011;18309;43.658;1.312;2022-09-12T12:13:55;6.00;;;1.88;;
31728;SDS011;18309;43.658;1.312;2022-09-12T12:16:33;12.75;;;1.73;;
31728;SDS011;18309;43.658;1.312;2022-09-12T12:19:10;10.70;;;2.08;;
31728;SDS011;18309;43.658;1.312;2022-09-12T12:21:55;7.90;;;1.67;;
31728;SDS011;18309;43.658;1.312;2022-09-12T12:24:32;7.05;;;2.28;;
31728;SDS011;18309;43.658;1.312;2022-09-12T12:27:02;11.10;;;2.10;;
31728;SDS011;18309;43.658;1.312;2022-09-12T12:29:44;8.65;;;2.20;;
31728;SDS011;18309;43.658;1.312;2022-09-12T12:34:40;11.48;;;1.80;;
31728;SDS011;18309;43.658;1.312;2022-09-12T12:45:43;13.25;;;1.80;;
31728;SDS011;18309;43.658;1.312;2022-09-12T12:47:46;11.45;;;1.65;;
31728;SDS011;18309;43.658;1.312;2022-09-12T12:52:53;8.45;;;1.67;;
31728;SDS011;18309;43.658;1.312;2022-09-12T13:01:03;14.25;;;1.90;;
31728;SDS011;18309;43.658;1.312;2022-09-12T13:03:31;7.28;;;1.90;;
31728;SDS011;18309;43.658;1.312;2022-09-12T13:06:01;8.05;;;1.45;;
31728;SDS011;18309;43.658;1.312;2022-09-12T13:08:35;3.33;;;1.55;;
31728;SDS011;18309;43.658;1.312;2022-09-12T13:13:50;4.82;;;1.50;;
31728;SDS011;18309;43.658;1.312;2022-09-12T13:16:31;5.50;;;1.70;;
31728;SDS011;18309;43.658;1.312;2022-09-12T13:19:01;11.63;;;1.27;;
31728;SDS011;18309;43.658;1.312;2022-09-12T13:21:59;5.38;;;1.50;;
31728;SDS011;18309;43.658;1.312;2022-09-12T13:24:32;6.38;;;1.48;;
31728;SDS011;18309;43.658;1.312;2022-09-12T13:26:58;4.45;;;1.63;;
31728;SDS011;18309;43.658;1.312;2022-09-12T13:29:25;3.28;;;1.13;;
31728;SDS011;18309;43.658;1.312;2022-09-12T13:31:55;11.32;;;1.60;;
31728;SDS011;18309;43.658;1.312;2022-09-12T13:34:24;5.40;;;1.38;;
31728;SDS011;18309;43.658;1.312;2022-09-12T13:39:47;5.63;;;1.30;;
31728;SDS011;18309;43.658;1.312;2022-09-12T13:44:54;5.78;;;1.30;;
31728;SDS011;18309;43.658;1.312;2022-09-12T13:47:24;9.00;;;1.60;;
31728;SDS011;18309;43.658;1.312;2022-09-12T13:49:54;12.65;;;1.70;;
31728;SDS011;18309;43.658;1.312;2022-09-12T13:52:24;6.93;;;1.27;;
31728;SDS011;18309;43.658;1.312;2022-09-12T13:54:56;14.43;;;2.00;;
31728;SDS011;18309;43.658;1.312;2022-09-12T13:57:32;8.32;;;1.70;;
31728;SDS011;18309;43.658;1.312;2022-09-12T13:59:58;8.68;;;1.55;;
31728;SDS011;18309;43.658;1.312;2022-09-12T14:02:26;6.28;;;1.48;;
31728;SDS011;18309;43.658;1.312;2022-09-12T14:04:53;10.32;;;1.50;;
31728;SDS011;18309;43.658;1.312;2022-09-12T14:07:33;12.07;;;2.22;;
31728;SDS011;18309;43.658;1.312;2022-09-12T14:10:12;9.98;;;1.33;;
31728;SDS011;18309;43.658;1.312;2022-09-12T14:12:42;9.88;;;1.25;;
31728;SDS011;18309;43.658;1.312;2022-09-12T14:15:20;14.13;;;1.55;;
31728;SDS011;18309;43.658;1.312;2022-09-12T14:17:54;3.03;;;1.30;;
31728;SDS011;18309;43.658;1.312;2022-09-12T14:20:25;10.63;;;1.90;;
31728;SDS011;18309;43.658;1.312;2022-09-12T14:23:02;13.35;;;1.38;;
31728;SDS011;18309;43.658;1.312;2022-09-12T14:25:45;7.28;;;1.48;;
31728;SDS011;18309;43.658;1.312;2022-09-12T14:28:13;7.68;;;1.20;;
31728;SDS011;18309;43.658;1.312;2022-09-12T14:31:30;7.45;;;1.33;;
31728;SDS011;18309;43.658;1.312;2022-09-12T14:33:32;6.88;;;1.27;;
31728;SDS011;18309;43.658;1.312;2022-09-12T14:36:23;6.18;;;1.60;;
31728;SDS011;18309;43.658;1.312;2022-09-12T14:39:03;12.77;;;1.58;;
31728;SDS011;18309;43.658;1.312;2022-09-12T14:41:36;12.18;;;2.17;;
31728;SDS011;18309;43.658;1.312;2022-09-12T14:44:06;16.20;;;1.50;;
31728;SDS011;18309;43.658;1.312;2022-09-12T14:46:37;5.75;;;1.20;;
31728;SDS011;18309;43.658;1.312;2022-09-12T14:54:01;7.53;;;1.98;;
31728;SDS011;18309;43.658;1.312;2022-09-12T14:56:40;8.35;;;1.92;;
31728;SDS011;18309;43.658;1.312;2022-09-12T15:07:28;9.27;;;1.25;;
31728;SDS011;18309;43.658;1.312;2022-09-12T15:10:13;6.53;;;1.15;;
31728;SDS011;18309;43.658;1.312;2022-09-12T15:13:02;11.98;;;1.73;;
31728;SDS011;18309;43.658;1.312;2022-09-12T15:15:35;12.65;;;1.45;;
31728;SDS011;18309;43.658;1.312;2022-09-12T15:18:02;17.00;;;1.70;;
31728;SDS011;18309;43.658;1.312;2022-09-12T15:20:29;3.70;;;1.13;;
31728;SDS011;18309;43.658;1.312;2022-09-12T15:22:56;6.78;;;1.75;;
31728;SDS011;18309;43.658;1.312;2022-09-12T15:25:22;7.32;;;1.48;;
31728;SDS011;18309;43.658;1.312;2022-09-12T15:27:49;9.25;;;1.50;;
31728;SDS011;18309;43.658;1.312;2022-09-12T15:30:16;8.15;;;1.20;;
31728;SDS011;18309;43.658;1.312;2022-09-12T15:32:43;11.48;;;1.40;;
31728;SDS011;18309;43.658;1.312;2022-09-12T15:35:16;8.20;;;1.45;;
31728;SDS011;18309;43.658;1.312;2022-09-12T15:37:43;7.30;;;1.50;;
31728;SDS011;18309;43.658;1.312;2022-09-12T15:40:12;13.07;;;1.42;;
31728;SDS011;18309;43.658;1.312;2022-09-12T15:42:38;8.48;;;1.30;;
31728;SDS011;18309;43.658;1.312;2022-09-12T15:47:43;9.68;;;1.50;;
31728;SDS011;18309;43.658;1.312;2022-09-12T15:50:10;12.18;;;1.55;;
31728;SDS011;18309;43.658;1.312;2022-09-12T15:52:36;9.30;;;1.35;;
31728;SDS011;18309;43.658;1.312;2022-09-12T15:55:02;13.10;;;1.70;;
31728;SDS011;18309;43.658;1.312;2022-09-12T15:57:28;6.13;;;1.10;;
31728;SDS011;18309;43.658;1.312;2022-09-12T15:59:54;7.72;;;1.25;;
31728;SDS011;18309;43.658;1.312;2022-09-12T16:02:20;6.35;;;1.25;;
31728;SDS011;18309;43.658;1.312;2022-09-12T16:04:45;5.82;;;1.23;;
31728;SDS011;18309;43.658;1.312;2022-09-12T16:07:12;8.45;;;1.92;;
31728;SDS011;18309;43.658;1.312;2022-09-12T16:09:38;8.00;;;1.98;;
31728;SDS011;18309;43.658;1.312;2022-09-12T16:12:04;5.45;;;1.75;;
31728;SDS011;18309;43.658;1.312;2022-09-12T16:14:30;9.73;;;1.77;;
31728;SDS011;18309;43.658;1.312;2022-09-12T16:16:56;12.13;;;1.70;;
31728;SDS011;18309;43.658;1.312;2022-09-12T16:19:22;8.45;;;1.60;;
31728;SDS011;18309;43.658;1.312;2022-09-12T16:21:48;11.88;;;1.75;;
31728;SDS011;18309;43.658;1.312;2022-09-12T16:24:14;6.22;;;1.40;;
31728;SDS011;18309;43.658;1.312;2022-09-12T16:26:40;9.57;;;1.60;;
31728;SDS011;18309;43.658;1.312;2022-09-12T16:29:06;5.95;;;1.60;;
31728;SDS011;18309;43.658;1.312;2022-09-12T16:31:32;5.43;;;1.67;;
31728;SDS011;18309;43.658;1.312;2022-09-12T16:33:59;10.80;;;1.65;;
31728;SDS011;18309;43.658;1.312;2022-09-12T16:36:25;8.10;;;1.75;;
31728;SDS011;18309;43.658;1.312;2022-09-12T16:38:51;6.60;;;1.40;;
31728;SDS011;18309;43.658;1.312;2022-09-12T16:41:19;11.15;;;1.90;;
31728;SDS011;18309;43.658;1.312;2022-09-12T16:43:46;14.40;;;1.70;;
31728;SDS011;18309;43.658;1.312;2022-09-12T16:46:17;3.67;;;1.30;;
31728;SDS011;18309;43.658;1.312;2022-09-12T16:48:48;9.80;;;1.98;;
31728;SDS011;18309;43.658;1.312;2022-09-12T16:51:15;4.03;;;1.13;;
31728;SDS011;18309;43.658;1.312;2022-09-12T16:53:44;8.10;;;1.40;;
31728;SDS011;18309;43.658;1.312;2022-09-12T16:56:10;5.85;;;1.85;;
31728;SDS011;18309;43.658;1.312;2022-09-12T16:58:37;5.75;;;1.30;;
31728;SDS011;18309;43.658;1.312;2022-09-12T17:01:09;15.90;;;1.60;;
31728;SDS011;18309;43.658;1.312;2022-09-12T17:03:39;6.60;;;1.50;;
31728;SDS011;18309;43.658;1.312;2022-09-12T17:06:06;9.57;;;1.50;;
31728;SDS011;18309;43.658;1.312;2022-09-12T17:08:38;12.57;;;1.70;;
31728;SDS011;18309;43.658;1.312;2022-09-12T17:11:10;7.45;;;1.65;;
31728;SDS011;18309;43.658;1.312;2022-09-12T17:13:40;7.35;;;1.38;;
31728;SDS011;18309;43.658;1.312;2022-09-12T17:16:10;12.48;;;1.58;;
31728;SDS011;18309;43.658;1.312;2022-09-12T17:18:36;7.00;;;1.60;;
31728;SDS011;18309;43.658;1.312;2022-09-12T17:23:38;5.97;;;1.58;;
31728;SDS011;18309;43.658;1.312;2022-09-12T17:26:05;9.23;;;1.42;;
31728;SDS011;18309;43.658;1.312;2022-09-12T17:28:31;13.38;;;2.05;;
31728;SDS011;18309;43.658;1.312;2022-09-12T17:30:58;12.10;;;1.80;;
31728;SDS011;18309;43.658;1.312;2022-09-12T17:33:25;7.15;;;1.75;;
31728;SDS011;18309;43.658;1.312;2022-09-12T17:35:52;7.10;;;2.33;;
31728;SDS011;18309;43.658;1.312;2022-09-12T17:38:18;7.50;;;1.90;;
31728;SDS011;18309;43.658;1.312;2022-09-12T17:40:45;8.48;;;1.50;;
31728;SDS011;18309;43.658;1.312;2022-09-12T17:43:13;8.10;;;1.75;;
31728;SDS011;18309;43.658;1.312;2022-09-12T17:45:39;7.32;;;1.77;;
31728;SDS011;18309;43.658;1.312;2022-09-12T17:48:05;12.77;;;1.50;;
31728;SDS011;18309;43.658;1.312;2022-09-12T17:50:38;6.60;;;1.80;;
31728;SDS011;18309;43.658;1.312;2022-09-12T17:53:04;7.68;;;1.73;;
31728;SDS011;18309;43.658;1.312;2022-09-12T17:55:35;5.90;;;1.75;;
31728;SDS011;18309;43.658;1.312;2022-09-12T18:00:28;9.68;;;2.30;;
31728;SDS011;18309;43.658;1.312;2022-09-12T18:03:13;6.05;;;1.90;;
31728;SDS011;18309;43.658;1.312;2022-09-12T18:05:53;10.00;;;2.45;;
31728;SDS011;18309;43.658;1.312;2022-09-12T18:08:20;7.82;;;1.90;;
31728;SDS011;18309;43.658;1.312;2022-09-12T18:10:47;5.47;;;1.70;;
31728;SDS011;18309;43.658;1.312;2022-09-12T18:13:13;10.35;;;1.67;;
31728;SDS011;18309;43.658;1.312;2022-09-12T18:15:40;8.88;;;2.22;;
31728;SDS011;18309;43.658;1.312;2022-09-12T18:18:06;7.93;;;1.75;;